Time;durP1;ratioP1;P1;durP2;ratioP2;P2;SDS_P1;SDS_P2;PMS_P1;PMS_P2;Temp;Humidity;BMP_temperature;BMP_pressure;BME280_temperature;BME280_humidity;BME280_pressure;Samples;Min_cycle;Max_cycle;Signal;HPM_P1;HPM_P2
2023/12/26 00:00:47;;;;;;;17.10;9.77;;;;;;;7.98;100.00;98674.44;5085685;28;20037;-69
2023/12/26 00:03:15;;;;;;;15.15;9.60;;;;;;;7.82;100.00;98634.25;5084244;28;20048;-68
2023/12/26 00:05:41;;;;;;;15.32;8.80;;;;;;;8.11;100.00;98685.41;5085467;28;20168;-68
2023/12/26 00:08:07;;;;;;;18.15;10.38;;;;;;;8.14;100.00;98685.16;5084134;28;20519;-69
2023/12/26 00:10:34;;;;;;;15.35;9.75;;;;;;;7.99;100.00;98681.22;5067315;28;20084;-70
2023/12/26 00:13:03;;;;;;;16.23;9.00;;;;;;;7.97;100.00;98675.38;5072567;28;20089;-69
2023/12/26 00:15:29;;;;;;;;;;;;;;;8.08;100.00;98675.28;5071312;28;20028;-70
2023/12/26 00:17:57;;;;;;;14.40;8.95;;;;;;;7.81;100.00;98626.59;5075711;28;20000;-69
2023/12/26 00:20:24;;;;;;;15.57;9.02;;;;;;;8.04;100.00;98666.97;5081291;28;20035;-69
2023/12/26 00:22:54;;;;;;;16.02;9.40;;;;;;;8.07;100.00;98676.25;5087501;28;20086;-70
2023/12/26 00:25:20;;;;;;;16.30;9.48;;;;;;;8.09;100.00;98675.16;5074470;28;20708;-68
2023/12/26 00:27:45;;;;;;;14.63;9.77;;;;;;;8.13;100.00;98678.31;5070585;28;20016;-70
2023/12/26 00:30:13;;;;;;;17.05;8.98;;;;;;;7.83;100.00;98656.63;5071771;28;20496;-70
2023/12/26 00:32:43;;;;;;;16.05;8.88;;;;;;;7.97;100.00;98673.59;5082392;28;20032;-70
2023/12/26 00:35:13;;;;;;;14.38;9.50;;;;;;;8.06;100.00;98672.00;5074298;28;20478;-69
2023/12/26 00:37:39;;;;;;;15.90;9.13;;;;;;;7.91;100.00;98666.34;5083966;28;20432;-70
2023/12/26 00:40:05;;;;;;;18.02;8.82;;;;;;;7.70;100.00;98627.50;5070765;28;20070;-69
2023/12/26 00:42:30;;;;;;;17.05;9.38;;;;;;;7.91;100.00;98674.09;5081490;28;20147;-69
2023/12/26 00:44:58;;;;;;;16.42;10.00;;;;;;;7.65;100.00;98634.84;5076613;28;20033;-69
2023/12/26 00:47:23;;;;;;;15.57;9.30;;;;;;;7.96;100.00;98663.34;5069206;28;20031;-68
2023/12/26 00:49:49;;;;;;;16.40;9.30;;;;;;;7.70;100.00;98617.13;5093374;28;20057;-70
2023/12/26 00:52:14;;;;;;;16.25;9.30;;;;;;;8.08;100.00;98662.34;5079044;28;20031;-70
2023/12/26 00:54:44;;;;;;;15.50;9.00;;;;;;;8.01;100.00;98664.63;5071365;28;20051;-69
2023/12/26 00:57:10;;;;;;;15.00;9.25;;;;;;;7.74;100.00;98623.72;5085227;28;20092;-72
2023/12/26 00:59:35;;;;;;;19.02;9.77;;;;;;;7.93;100.00;98666.22;5084033;28;21267;-70
2023/12/26 01:02:03;;;;;;;16.42;9.38;;;;;;;7.73;100.00;98627.25;5068978;28;20062;-68
2023/12/26 01:04:28;;;;;;;16.50;9.73;;;;;;;7.99;100.00;98669.09;5070653;28;20034;-70
2023/12/26 01:06:59;;;;;;;18.30;10.65;;;;;;;7.99;100.00;98658.75;5085952;28;20024;-69
2023/12/26 01:09:24;;;;;;;17.10;11.15;;;;;;;8.12;100.00;98673.28;5072132;28;20036;-68
2023/12/26 01:11:50;;;;;;;15.43;10.32;;;;;;;8.14;100.00;98663.59;5088887;28;20026;-67
2023/12/26 01:14:17;;;;;;;19.95;10.15;;;;;;;8.12;100.00;98663.72;5084872;28;20527;-69
2023/12/26 01:16:45;;;;;;;17.17;10.48;;;;;;;8.17;100.00;98671.13;5087236;28;20032;-68
2023/12/26 01:19:13;;;;;;;18.30;10.90;;;;;;;8.23;100.00;98668.00;5080652;28;20031;-68
2023/12/26 01:21:39;;;;;;;16.65;10.48;;;;;;;8.25;100.00;98666.94;5081903;28;20753;-70
2023/12/26 01:24:05;;;;;;;16.52;10.23;;;;;;;8.18;100.00;98665.81;5070584;28;20051;-70
2023/12/26 01:26:33;;;;;;;17.92;10.35;;;;;;;8.11;100.00;98661.28;5083199;28;20024;-69
2023/12/26 01:28:58;;;;;;;15.88;9.88;;;;;;;8.06;100.00;98667.66;5084943;28;20028;-71
2023/12/26 01:31:24;;;;;;;14.95;10.15;;;;;;;7.88;100.00;98627.75;5067269;28;20776;-69
2023/12/26 01:33:52;;;;;;;17.42;10.50;;;;;;;8.19;100.00;98664.03;5082218;28;20032;-68
2023/12/26 01:36:18;;;;;;;17.27;12.07;;;;;;;8.19;100.00;98666.63;5081464;28;20047;-70
2023/12/26 01:38:43;;;;;;;15.68;10.18;;;;;;;8.22;100.00;98669.78;5087917;28;20638;-69
2023/12/26 01:41:11;;;;;;;17.88;11.07;;;;;;;8.18;100.00;98665.81;5065776;28;20031;-70
2023/12/26 01:43:36;;;;;;;17.48;10.00;;;;;;;8.22;100.00;98672.38;5089191;28;20703;-69
2023/12/26 01:46:07;;;;;;;20.63;11.07;;;;;;;8.33;100.00;98670.66;5082110;28;20024;-70
2023/12/26 01:48:33;;;;;;;17.35;10.80;;;;;;;8.17;100.00;98638.25;5085803;28;20036;-69
2023/12/26 01:51:02;;;;;;;16.80;10.48;;;;;;;8.38;100.00;98673.69;5062893;28;20028;-69
2023/12/26 01:53:27;;;;;;;16.25;10.35;;;;;;;8.22;100.00;98636.13;5089486;28;20474;-71
2023/12/26 01:55:55;;;;;;;16.13;10.50;;;;;;;8.50;100.00;98669.28;5084324;28;20671;-71
2023/12/26 01:58:21;;;;;;;19.17;10.73;;;;;;;8.56;100.00;98666.16;5086066;28;20092;-69
2023/12/26 02:00:48;;;;;;;15.05;10.57;;;;;;;8.57;100.00;98667.81;5090174;28;20035;-69
2023/12/26 02:03:14;;;;;;;15.63;10.70;;;;;;;8.66;100.00;98665.22;5076644;28;20040;-68
2023/12/26 02:05:40;;;;;;;15.57;10.38;;;;;;;8.67;100.00;98666.06;5084247;28;20046;-68
2023/12/26 02:08:08;;;;;;;17.27;11.02;;;;;;;8.70;100.00;98664.97;5062758;28;20115;-69
2023/12/26 02:10:33;;;;;;;14.82;9.90;;;;;;;8.41;100.00;98626.78;5061032;28;20043;-69
2023/12/26 02:12:59;;;;;;;16.63;10.07;;;;;;;8.68;100.00;98667.69;5070131;28;20041;-71
2023/12/26 02:15:24;;;;;;;16.90;9.90;;;;;;;8.69;100.00;98669.34;5086437;28;20030;-70
2023/12/26 02:17:50;;;;;;;14.88;9.73;;;;;;;8.70;100.00;98663.19;5071577;28;20678;-68
2023/12/26 02:20:15;;;;;;;15.57;9.52;;;;;;;8.75;100.00;98655.03;5083229;28;20505;-69
2023/12/26 02:22:41;;;;;;;16.33;10.23;;;;;;;8.43;100.00;98638.72;5082559;28;20090;-69
2023/12/26 02:25:08;;;;;;;20.98;10.07;;;;;;;8.43;100.00;98661.19;5080283;28;20028;-70
2023/12/26 02:27:37;;;;;;;15.77;10.30;;;;;;;8.34;100.00;98623.91;5086057;28;20043;-69
2023/12/26 02:30:04;;;;;;;16.42;10.18;;;;;;;8.45;100.00;98625.59;5069509;28;20039;-69
2023/12/26 02:32:30;;;;;;;16.15;10.50;;;;;;;8.42;100.00;98626.69;5075360;28;20557;-69
2023/12/26 02:35:00;;;;;;;19.23;10.98;;;;;;;8.60;100.00;98659.78;5064155;28;20011;-69
2023/12/26 02:37:26;;;;;;;;;;;;;;;8.60;100.00;98660.59;5085650;28;20068;-69
2023/12/26 02:39:51;;;;;;;17.63;11.30;;;;;;;8.57;100.00;98658.25;5074755;28;20014;-70
2023/12/26 02:42:21;;;;;;;16.05;9.77;;;;;;;8.50;100.00;98636.38;5082137;28;20047;-69
2023/12/26 02:44:49;;;;;;;15.52;10.68;;;;;;;8.70;100.00;98652.03;5087472;28;20123;-69
2023/12/26 02:47:15;;;;;;;16.75;10.38;;;;;;;8.43;100.00;98622.31;5067268;28;20067;-71
2023/12/26 02:49:43;;;;;;;16.48;10.52;;;;;;;8.57;100.00;98662.63;5092340;28;20041;-69
2023/12/26 02:52:08;;;;;;;17.73;11.40;;;;;;;8.25;100.00;98622.06;5073829;28;20055;-71
2023/12/26 02:54:35;;;;;;;17.45;10.38;;;;;;;8.52;100.00;98651.81;5085419;28;21010;-70
2023/12/26 02:57:00;;;;;;;19.08;11.05;;;;;;;8.36;100.00;98611.63;5085902;28;20039;-69
2023/12/26 02:59:26;;;;;;;16.15;10.98;;;;;;;8.69;100.00;98658.97;5086826;28;20039;-68
2023/12/26 03:01:54;;;;;;;17.52;10.93;;;;;;;8.41;100.00;98621.59;5089945;28;20589;-68
2023/12/26 03:04:20;;;;;;;18.60;11.63;;;;;;;8.41;100.00;98621.59;5087465;28;20020;-71
2023/12/26 03:06:45;;;;;;;17.02;10.23;;;;;;;8.70;100.00;98658.00;5091193;28;20042;-68
2023/12/26 03:09:11;;;;;;;19.40;11.00;;;;;;;8.79;100.00;98656.41;5088566;28;20073;-68
2023/12/26 03:11:36;;;;;;;14.80;9.60;;;;;;;8.80;100.00;98655.47;5073972;28;20121;-68
2023/12/26 03:14:02;;;;;;;16.13;10.25;;;;;;;8.84;100.00;98649.88;5071197;28;20754;-68
2023/12/26 03:16:28;;;;;;;19.50;11.15;;;;;;;8.87;100.00;98646.22;5086000;28;20027;-68
2023/12/26 03:18:53;;;;;;;17.13;10.73;;;;;;;8.92;100.00;98663.94;5093541;28;20027;-67
2023/12/26 03:21:20;;;;;;;16.33;10.05;;;;;;;8.70;100.00;98650.25;5088951;28;20020;-69
2023/12/26 03:23:45;;;;;;;17.52;10.23;;;;;;;8.70;100.00;98641.66;5092468;28;20058;-69
2023/12/26 03:26:10;;;;;;;15.35;10.15;;;;;;;8.73;100.00;98644.81;5088749;28;20032;-69
2023/12/26 03:28:36;;;;;;;14.88;10.85;;;;;;;8.53;100.00;98606.81;5073521;28;20036;-66
2023/12/26 03:31:02;;;;;;;17.17;10.55;;;;;;;8.64;100.00;98643.81;5087538;28;20028;-69
2023/12/26 03:33:30;;;;;;;18.48;10.60;;;;;;;8.73;100.00;98644.81;5085266;28;20114;-68
2023/12/26 03:35:55;;;;;;;14.20;10.35;;;;;;;8.57;100.00;98616.78;5086367;28;20041;-68
2023/12/26 03:38:23;;;;;;;17.35;10.43;;;;;;;8.80;100.00;98635.53;5082289;28;20402;-68
2023/12/26 03:40:48;;;;;;;15.50;10.55;;;;;;;8.87;100.00;98645.38;5072019;28;20027;-68
2023/12/26 03:43:16;;;;;;;13.77;9.40;;;;;;;8.69;100.00;98622.69;5070368;28;20055;-70
2023/12/26 03:45:42;;;;;;;17.35;10.02;;;;;;;8.81;100.00;98620.78;5075278;28;20036;-68
2023/12/26 03:48:07;;;;;;;16.10;10.35;;;;;;;8.72;100.00;98642.34;5067723;28;20058;-69
2023/12/26 03:50:35;;;;;;;15.98;10.55;;;;;;;8.54;100.00;98609.28;5089206;28;20027;-68
2023/12/26 03:53:02;;;;;;;16.98;10.20;;;;;;;8.83;100.00;98644.81;5086062;28;20043;-69
2023/12/26 03:55:30;;;;;;;15.43;10.48;;;;;;;8.81;100.00;98636.34;5095894;28;20038;-69
2023/12/26 03:57:55;;;;;;;16.23;10.73;;;;;;;8.77;100.00;98635.81;5079835;28;20039;-69
2023/12/26 04:00:21;;;;;;;15.20;10.38;;;;;;;8.90;100.00;98637.34;5091325;27;20023;-68
2023/12/26 04:02:49;;;;;;;15.48;9.90;;;;;;;8.73;100.00;98605.09;5069050;28;20053;-69
2023/12/26 04:05:14;;;;;;;16.98;10.15;;;;;;;8.74;100.00;98625.69;5080634;28;20020;-70
2023/12/26 04:07:42;;;;;;;15.68;9.90;;;;;;;8.71;100.00;98617.38;5065814;28;20031;-68
2023/12/26 04:10:08;;;;;;;15.02;10.52;;;;;;;8.84;100.00;98628.31;5084258;28;20080;-68
2023/12/26 04:12:34;;;;;;;16.00;10.32;;;;;;;8.84;100.00;98636.09;5085316;28;20031;-68
2023/12/26 04:15:02;;;;;;;15.45;10.88;;;;;;;8.91;100.00;98626.00;5091062;28;20034;-68
2023/12/26 04:17:28;;;;;;;16.42;10.23;;;;;;;8.91;100.00;98629.44;5083959;28;20143;-68
2023/12/26 04:19:55;;;;;;;17.85;10.98;;;;;;;8.96;100.00;98623.81;5090541;28;20744;-67
2023/12/26 04:22:24;;;;;;;16.13;10.07;;;;;;;8.96;100.00;98623.81;5088328;28;20051;-69
2023/12/26 04:24:51;;;;;;;16.38;10.43;;;;;;;9.00;100.00;98620.03;5070556;28;20034;-69
2023/12/26 04:27:22;;;;;;;15.15;10.23;;;;;;;8.99;100.00;98608.81;5078211;28;20460;-68
2023/12/26 04:29:47;;;;;;;15.68;9.93;;;;;;;9.07;100.00;98612.50;5067978;28;20031;-69
2023/12/26 04:32:15;;;;;;;14.93;10.23;;;;;;;9.08;100.00;98612.38;5072777;28;20036;-70
2023/12/26 04:34:42;;;;;;;18.33;10.25;;;;;;;8.76;100.00;98573.72;5079595;28;20765;-67
2023/12/26 04:37:08;;;;;;;16.27;10.10;;;;;;;9.02;100.00;98611.16;5082863;28;20106;-69
2023/12/26 04:39:36;;;;;;;15.80;10.75;;;;;;;9.00;100.00;98610.47;5089216;28;20027;-68
2023/12/26 04:42:04;;;;;;;18.25;10.50;;;;;;;8.95;100.00;98609.25;5086514;28;20042;-66
2023/12/26 04:44:29;;;;;;;14.55;10.18;;;;;;;8.91;100.00;98597.47;5090880;28;20636;-69
2023/12/26 04:46:57;;;;;;;14.85;9.85;;;;;;;9.02;100.00;98621.53;5080970;28;20028;-67
2023/12/26 04:49:22;;;;;;;15.00;10.68;;;;;;;8.82;100.00;98612.09;5075966;28;20081;-67
2023/12/26 04:51:48;;;;;;;17.60;10.73;;;;;;;8.76;100.00;98615.19;5087179;28;20035;-68
2023/12/26 04:54:13;;;;;;;15.70;10.40;;;;;;;8.89;100.00;98613.19;5074965;28;20032;-67
2023/12/26 04:56:43;;;;;;;17.75;10.32;;;;;;;8.90;100.00;98601.84;5083930;28;20113;-68
2023/12/26 04:59:10;;;;;;;18.48;10.88;;;;;;;8.94;100.00;98618.78;5073746;28;20027;-69
2023/12/26 05:01:42;;;;;;;18.58;11.07;;;;;;;8.98;100.00;98612.38;5072885;28;20100;-69
2023/12/26 05:04:10;;;;;;;15.77;10.90;;;;;;;8.75;100.00;98569.50;5075847;28;20038;-68
2023/12/26 05:06:35;;;;;;;15.93;10.82;;;;;;;9.00;100.00;98607.88;5086650;28;20061;-70
2023/12/26 05:09:02;;;;;;;15.00;10.90;;;;;;;9.08;100.00;98614.16;5089011;28;20024;-71
2023/12/26 05:11:27;;;;;;;18.90;10.93;;;;;;;8.82;100.00;98574.00;5075931;28;20128;-68
2023/12/26 05:13:53;;;;;;;17.95;10.55;;;;;;;9.07;100.00;98625.47;5103630;27;20034;-70
2023/12/26 05:16:21;;;;;;;17.67;11.05;;;;;;;9.11;100.00;98625.09;5083562;28;20081;-69
2023/12/26 05:18:46;;;;;;;15.73;10.82;;;;;;;9.11;100.00;98622.50;5085860;28;20027;-69
2023/12/26 05:21:18;;;;;;;16.98;10.93;;;;;;;9.17;100.00;98623.72;5084302;28;20039;-69
2023/12/26 05:23:46;;;;;;;16.60;10.43;;;;;;;9.10;100.00;98625.22;5089034;28;20169;-68
2023/12/26 05:26:11;;;;;;;17.23;10.75;;;;;;;9.05;100.00;98623.03;5106073;27;20032;-70
2023/12/26 05:28:37;;;;;;;18.25;11.43;;;;;;;9.11;100.00;98621.66;5066242;28;20043;-70
2023/12/26 05:31:05;;;;;;;15.15;10.80;;;;;;;9.14;100.00;98626.59;5070503;28;20040;-69
2023/12/26 05:33:31;;;;;;;15.43;10.25;;;;;;;8.98;100.00;98596.81;5069449;28;20541;-69
2023/12/26 05:35:56;;;;;;;14.75;10.55;;;;;;;9.11;100.00;98637.22;5087426;28;20032;-69
2023/12/26 05:38:22;;;;;;;15.02;10.55;;;;;;;9.04;100.00;98622.22;5080269;28;20028;-69
2023/12/26 05:40:50;;;;;;;17.70;10.65;;;;;;;9.10;100.00;98625.22;5068956;28;20023;-69
2023/12/26 05:43:18;;;;;;;17.55;10.95;;;;;;;9.10;100.00;98630.41;5070770;28;20553;-68
2023/12/26 05:45:46;;;;;;;14.43;10.25;;;;;;;9.15;100.00;98633.44;5088973;28;20042;-69
2023/12/26 05:48:11;;;;;;;16.67;10.75;;;;;;;8.91;100.00;98602.66;5083036;28;20402;-69
2023/12/26 05:50:37;;;;;;;18.42;10.95;;;;;;;8.89;100.00;98592.44;5089163;28;20035;-69
2023/12/26 05:53:04;;;;;;;15.23;10.68;;;;;;;9.09;100.00;98631.34;5080821;28;20528;-68
2023/12/26 05:55:30;;;;;;;16.58;11.00;;;;;;;9.03;100.00;98619.75;5087703;28;20028;-70
2023/12/26 05:57:57;;;;;;;16.05;10.55;;;;;;;9.11;100.00;98624.25;5084425;28;20061;-68
2023/12/26 06:00:25;;;;;;;14.13;10.70;;;;;;;9.15;100.00;98633.44;5068379;28;20695;-69
2023/12/26 06:02:53;;;;;;;17.23;11.10;;;;;;;9.15;100.00;98641.22;5088830;28;20025;-68
2023/12/26 06:05:23;;;;;;;18.75;11.43;;;;;;;9.03;100.00;98638.75;5086382;28;21321;-68
2023/12/26 06:07:48;;;;;;;15.95;10.35;;;;;;;8.90;100.00;98604.44;5070367;28;20032;-69
2023/12/26 06:10:16;;;;;;;16.25;10.57;;;;;;;8.91;100.00;98605.25;5081042;28;20103;-70
2023/12/26 06:12:41;;;;;;;18.45;10.20;;;;;;;9.04;100.00;98640.38;5092441;28;20104;-68
2023/12/26 06:15:07;;;;;;;18.77;11.40;;;;;;;9.06;100.00;98642.81;5084025;28;20126;-68
2023/12/26 06:17:36;;;;;;;17.15;11.38;;;;;;;9.03;100.00;98656.91;5087823;28;20031;-69
2023/12/26 06:20:03;;;;;;;17.60;10.80;;;;;;;9.09;100.00;98647.75;5072818;28;20913;-68
2023/12/26 06:22:28;;;;;;;17.90;11.63;;;;;;;9.12;100.00;98647.47;5090452;28;20073;-70
2023/12/26 06:24:53;;;;;;;13.80;10.00;;;;;;;9.15;100.00;98652.41;5083671;28;20493;-68
2023/12/26 06:27:21;;;;;;;16.15;10.90;;;;;;;9.16;100.00;98650.63;5084052;28;20503;-69
2023/12/26 06:29:46;;;;;;;13.38;10.30;;;;;;;9.09;100.00;98644.31;5087500;28;20024;-68
2023/12/26 06:32:12;;;;;;;17.70;10.70;;;;;;;9.13;100.00;98656.09;5075364;28;20028;-67
2023/12/26 06:34:37;;;;;;;17.95;11.38;;;;;;;9.12;100.00;98651.84;5107041;27;20154;-70
2023/12/26 06:37:06;;;;;;;17.20;10.80;;;;;;;9.14;100.00;98655.94;5089842;28;20105;-70
2023/12/26 06:39:36;;;;;;;17.33;11.85;;;;;;;9.14;100.00;98655.13;5090421;28;20051;-69
2023/12/26 06:42:04;;;;;;;21.55;11.88;;;;;;;9.16;100.00;98661.00;5068142;28;20031;-68
2023/12/26 06:44:30;;;;;;;16.20;10.40;;;;;;;9.23;100.00;98664.69;5088125;28;20036;-70
2023/12/26 06:46:58;;;;;;;16.85;10.98;;;;;;;9.20;100.00;98667.56;5084576;28;20077;-69
2023/12/26 06:49:26;;;;;;;17.25;11.00;;;;;;;9.19;100.00;98671.91;5069685;28;20077;-70
2023/12/26 06:51:51;;;;;;;15.57;10.45;;;;;;;9.09;100.00;98671.09;5088303;28;20119;-68
2023/12/26 06:54:16;;;;;;;19.58;11.48;;;;;;;8.99;100.00;98676.25;5071703;28;20032;-68
2023/12/26 06:56:42;;;;;;;16.42;11.05;;;;;;;8.97;100.00;98685.13;5089253;28;20031;-69
2023/12/26 06:59:10;;;;;;;15.43;10.77;;;;;;;8.99;100.00;98681.44;5061298;28;20461;-70
2023/12/26 07:01:37;;;;;;;17.70;11.50;;;;;;;9.06;100.00;98679.16;5092485;28;20165;-69
2023/12/26 07:04:03;;;;;;;19.33;11.93;;;;;;;8.97;100.00;98685.94;5086176;28;20134;-70
2023/12/26 07:06:35;;;;;;;15.90;11.30;;;;;;;8.96;100.00;98691.25;5091485;28;20031;-69
2023/12/26 07:09:02;;;;;;;17.35;11.55;;;;;;;8.69;100.00;98646.03;5066580;28;20203;-70
2023/12/26 07:11:28;;;;;;;17.85;11.88;;;;;;;8.90;100.00;98681.41;5090012;28;20043;-70
2023/12/26 07:13:53;;;;;;;17.98;11.48;;;;;;;8.87;100.00;98692.88;5083965;28;20036;-70
2023/12/26 07:16:21;;;;;;;17.05;11.48;;;;;;;8.86;100.00;98686.06;5085564;28;20047;-69
2023/12/26 07:18:53;;;;;;;19.20;12.10;;;;;;;8.76;100.00;98688.63;5088223;28;20031;-68
2023/12/26 07:21:20;;;;;;;19.40;11.23;;;;;;;8.78;100.00;98688.47;5086417;28;20027;-67
2023/12/26 07:23:48;;;;;;;17.70;11.05;;;;;;;8.70;100.00;98696.91;5093165;28;20036;-69
2023/12/26 07:26:14;;;;;;;17.20;12.52;;;;;;;8.77;100.00;98699.81;5066079;28;20023;-68
2023/12/26 07:28:39;;;;;;;17.42;11.52;;;;;;;8.76;100.00;98699.00;5085306;28;20687;-69
2023/12/26 07:31:07;;;;;;;19.50;11.65;;;;;;;8.78;100.00;98699.69;5082665;28;20032;-68
2023/12/26 07:33:34;;;;;;;18.80;11.07;;;;;;;8.55;100.00;98662.75;5067789;28;20105;-69
2023/12/26 07:36:01;;;;;;;19.50;11.48;;;;;;;8.78;100.00;98698.84;5072737;28;20035;-69
2023/12/26 07:38:26;;;;;;;18.08;11.27;;;;;;;8.76;100.00;98711.09;5068036;28;20197;-67
2023/12/26 07:40:54;;;;;;;18.77;11.70;;;;;;;8.81;100.00;98706.34;5091273;28;20824;-67
2023/12/26 07:43:19;;;;;;;14.27;10.55;;;;;;;8.95;100.00;98710.38;5064991;28;20137;-69
2023/12/26 07:45:45;;;;;;;18.35;11.65;;;;;;;8.96;100.00;98704.22;5076450;28;20031;-68
2023/12/26 07:48:10;;;;;;;17.98;10.98;;;;;;;8.90;100.00;98691.78;5084845;28;20028;-69
2023/12/26 07:50:36;;;;;;;17.98;11.18;;;;;;;8.98;100.00;98705.75;5087535;28;20051;-69
2023/12/26 07:53:04;;;;;;;17.85;11.15;;;;;;;8.94;100.00;98708.72;5086487;28;20385;-68
2023/12/26 07:55:32;;;;;;;19.48;11.68;;;;;;;8.95;100.00;98712.97;5086505;28;20023;-68
2023/12/26 07:58:00;;;;;;;19.63;11.90;;;;;;;8.92;100.00;98711.44;5107089;27;20051;-67
2023/12/26 08:00:25;;;;;;;18.40;11.40;;;;;;;8.77;100.00;98677.28;5099214;27;20618;-69
2023/12/26 08:02:51;;;;;;;16.05;11.27;;;;;;;9.08;100.00;98726.50;5070042;28;20067;-67
2023/12/26 08:05:16;;;;;;;18.33;12.00;;;;;;;9.10;100.00;98729.78;5066661;28;20032;-69
2023/12/26 08:07:41;;;;;;;17.85;10.57;;;;;;;9.10;100.00;98731.56;5105080;27;20394;-69
2023/12/26 08:10:10;;;;;;;15.10;10.57;;;;;;;9.14;100.00;98743.31;5081892;28;20739;-70
2023/12/26 08:12:35;;;;;;;18.02;11.13;;;;;;;9.11;100.00;98733.19;5083394;28;20039;-66
2023/12/26 08:15:01;;;;;;;16.88;10.85;;;;;;;9.17;100.00;98736.09;5087885;28;20032;-69
2023/12/26 08:17:29;;;;;;;17.20;10.52;;;;;;;9.24;100.00;98747.59;5083309;28;20127;-69
2023/12/26 08:19:59;;;;;;;17.67;10.55;;;;;;;9.29;100.00;98754.97;5072582;28;20061;-68
2023/12/26 08:22:24;;;;;;;19.40;11.80;;;;;;;9.35;100.00;98754.44;5063425;28;20028;-68
2023/12/26 08:24:50;;;;;;;17.67;11.30;;;;;;;9.41;100.00;98751.31;5071064;28;20054;-69
2023/12/26 08:27:15;;;;;;;16.60;11.10;;;;;;;9.49;100.00;98752.41;5064632;28;21170;-69
2023/12/26 08:29:41;;;;;;;20.13;11.40;;;;;;;9.45;100.00;98745.84;5086149;28;21177;-68
2023/12/26 08:32:06;;;;;;;14.55;11.15;;;;;;;9.47;100.00;98754.31;5069249;28;20043;-67
2023/12/26 08:34:32;;;;;;;17.00;11.25;;;;;;;9.50;100.00;98765.25;5069928;28;20028;-68
2023/12/26 08:36:57;;;;;;;16.05;11.68;;;;;;;9.49;100.00;98755.00;5072448;28;20036;-68
2023/12/26 08:39:23;;;;;;;17.98;12.00;;;;;;;9.56;100.00;98753.50;5073167;28;20032;-66
2023/12/26 08:41:51;;;;;;;17.58;11.60;;;;;;;9.58;100.00;98751.59;5070525;28;20118;-68
2023/12/26 08:44:19;;;;;;;19.00;10.82;;;;;;;9.53;100.00;98761.59;5086186;28;20724;-70
2023/12/26 08:46:44;;;;;;;19.27;10.95;;;;;;;9.48;100.00;98763.75;5084121;28;20032;-68
2023/12/26 08:49:09;;;;;;;17.10;12.05;;;;;;;9.53;100.00;98761.59;5084583;28;20039;-68
2023/12/26 08:51:39;;;;;;;16.83;11.57;;;;;;;9.37;100.00;98762.91;5073686;28;20778;-69
2023/12/26 08:54:07;;;;;;;17.48;11.20;;;;;;;9.37;100.00;98769.88;5070497;28;20024;-67
2023/12/26 08:56:33;;;;;;;18.60;11.18;;;;;;;9.31;100.00;98771.25;5070012;28;20102;-67
2023/12/26 08:59:01;;;;;;;16.10;11.15;;;;;;;9.42;100.00;98768.53;5067999;28;20024;-67
2023/12/26 09:01:31;;;;;;;18.15;11.25;;;;;;;9.53;100.00;98770.19;5090871;28;20040;-68
2023/12/26 09:03:56;;;;;;;18.10;11.55;;;;;;;9.52;100.00;98763.34;5082518;28;20076;-68
2023/12/26 09:06:22;;;;;;;15.60;11.25;;;;;;;9.52;100.00;98771.13;5074787;28;20036;-66
2023/12/26 09:08:47;;;;;;;16.67;11.40;;;;;;;9.53;100.00;98783.16;5082966;28;20024;-67
2023/12/26 09:11:13;;;;;;;20.15;12.27;;;;;;;9.46;100.00;98769.09;5086914;28;20036;-66
2023/12/26 09:13:41;;;;;;;20.55;11.52;;;;;;;9.14;100.00;98741.53;5081902;28;20027;-69
2023/12/26 09:16:09;;;;;;;17.08;11.55;;;;;;;9.37;100.00;98770.69;5070253;28;20096;-68
2023/12/26 09:18:43;;;;;;;19.15;11.80;;;;;;;9.40;100.00;98765.25;5102513;27;20139;-67
2023/12/26 09:21:09;;;;;;;16.83;12.07;;;;;;;9.33;100.00;98779.72;5063622;28;20020;-70
2023/12/26 09:23:35;;;;;;;17.52;11.82;;;;;;;9.41;100.00;98779.03;5049323;28;20084;-68
2023/12/26 09:26:04;;;;;;;15.88;11.73;;;;;;;9.41;100.00;98774.66;5064308;28;20032;-65
2023/12/26 09:28:30;;;;;;;15.90;11.40;;;;;;;9.35;100.00;98738.06;5062556;28;20084;-67
2023/12/26 09:30:56;;;;;;;15.63;11.35;;;;;;;9.63;100.00;98783.19;5062311;28;20116;-66
2023/12/26 09:33:21;;;;;;;19.80;12.05;;;;;;;9.65;100.00;98772.66;5058242;28;20682;-67
2023/12/26 09:35:47;;;;;;;17.50;11.38;;;;;;;9.60;100.00;98773.06;5059891;28;20146;-67
2023/12/26 09:38:17;;;;;;;19.27;12.13;;;;;;;9.65;100.00;98783.03;5065177;28;20028;-67
2023/12/26 09:40:43;;;;;;;20.38;12.07;;;;;;;9.57;100.00;98789.72;5055448;28;20029;-67
2023/12/26 09:43:09;;;;;;;17.75;11.55;;;;;;;9.72;100.00;98794.53;5059310;28;20027;-68
2023/12/26 09:45:34;;;;;;;16.75;10.85;;;;;;;9.80;100.00;98784.28;5075527;28;20576;-67
2023/12/26 09:48:00;;;;;;;18.52;11.25;;;;;;;9.70;100.00;98765.28;5057452;28;20023;-69
2023/12/26 09:50:26;;;;;;;17.35;11.73;;;;;;;9.85;100.00;98796.88;5057344;28;20039;-67
2023/12/26 09:52:56;;;;;;;14.65;11.07;;;;;;;9.84;100.00;98790.88;5059835;28;20043;-70
2023/12/26 09:55:25;;;;;;;15.93;10.93;;;;;;;9.73;100.00;98784.03;5094237;27;20042;-69
2023/12/26 09:57:53;;;;;;;17.30;12.40;;;;;;;9.80;100.00;98797.25;5070418;28;20036;-67
2023/12/26 10:00:21;;;;;;;19.38;12.07;;;;;;;9.36;100.00;98755.25;5061548;28;20027;-70
2023/12/26 10:02:50;;;;;;;16.00;10.77;;;;;;;9.49;100.00;98789.59;5075625;28;20046;-68
2023/12/26 10:05:16;;;;;;;18.53;12.17;;;;;;;9.67;100.00;98797.53;5081396;28;20026;-69
2023/12/26 10:07:42;;;;;;;18.70;12.05;;;;;;;9.62;100.00;98794.53;5081063;28;20277;-68
2023/12/26 10:10:09;;;;;;;17.38;11.95;;;;;;;9.61;100.00;98801.47;5080371;28;20099;-66
2023/12/26 10:12:36;;;;;;;19.15;12.23;;;;;;;9.61;100.00;98795.47;5064718;28;20035;-70
2023/12/26 10:15:04;;;;;;;17.23;11.38;;;;;;;9.63;100.00;98799.56;5093544;27;20032;-65
2023/12/26 10:17:32;;;;;;;18.48;11.23;;;;;;;9.78;100.00;98807.81;5062820;28;20110;-68
2023/12/26 10:19:58;;;;;;;17.48;11.90;;;;;;;9.75;100.00;98796.88;5063377;28;20027;-68
2023/12/26 10:22:27;;;;;;;18.67;11.65;;;;;;;9.71;100.00;98788.53;5078192;28;20638;-68
2023/12/26 10:24:55;;;;;;;15.63;11.13;;;;;;;9.81;100.00;98791.94;5063384;28;20036;-67
2023/12/26 10:27:20;;;;;;;20.05;12.02;;;;;;;9.77;100.00;98779.38;5079161;28;20644;-69
2023/12/26 10:29:53;;;;;;;16.13;11.25;;;;;;;9.74;100.00;98779.63;5074231;28;20058;-69
2023/12/26 10:32:19;;;;;;;19.35;11.23;;;;;;;9.70;100.00;98779.09;5073314;28;20115;-70
2023/12/26 10:34:45;;;;;;;19.35;11.85;;;;;;;9.77;100.00;98776.78;5062848;28;20808;-69
2023/12/26 10:37:11;;;;;;;16.50;11.70;;;;;;;9.63;100.00;98767.59;5071072;28;20032;-67
2023/12/26 10:39:36;;;;;;;17.55;11.45;;;;;;;9.64;100.00;98774.44;5088344;28;20451;-67
2023/12/26 10:42:03;;;;;;;16.67;11.27;;;;;;;9.58;100.00;98772.38;5093865;27;20441;-68
2023/12/26 10:45:05;;;;;;;17.85;11.13;;;;;;;9.63;100.00;98773.59;5082658;28;20019;-69
2023/12/26 10:47:34;;;;;;;15.63;11.07;;;;;;;9.72;100.00;98774.56;5087148;28;20043;-67
2023/12/26 10:50:05;;;;;;;16.77;11.03;;;;;;;9.74;100.00;98774.44;5068400;28;20024;-68
2023/12/26 10:53:08;;;;;;;18.20;11.15;;;;;;;9.78;100.00;98779.25;5069303;28;20120;-67
2023/12/26 10:55:35;;;;;;;17.55;11.60;;;;;;;9.87;100.00;98766.38;5087072;28;20123;-68
2023/12/26 10:58:29;;;;;;;16.10;10.85;;;;;;;9.91;100.00;98773.78;5071241;28;20765;-69
2023/12/26 11:01:16;;;;;;;18.08;10.73;;;;;;;9.87;100.00;98775.00;5090661;28;20031;-68
2023/12/26 13:51:57;;;;;;;15.57;8.85;;;;;;;10.89;96.74;98706.00;5076008;28;20042;-69
2023/12/26 13:54:23;;;;;;;14.30;8.95;;;;;;;10.89;97.06;98693.00;5073042;28;20035;-67
2023/12/26 13:56:48;;;;;;;16.85;8.65;;;;;;;11.00;95.67;98686.78;5082218;28;20035;-66
2023/12/26 13:59:13;;;;;;;14.15;9.35;;;;;;;11.01;96.33;98689.25;5052584;28;20036;-67
2023/12/26 14:01:41;;;;;;;15.95;8.90;;;;;;;10.87;96.01;98674.13;5056650;28;20020;-68
2023/12/26 14:04:09;;;;;;;16.10;8.93;;;;;;;11.03;95.47;98681.31;5060854;28;20047;-67
2023/12/26 14:06:35;;;;;;;19.25;9.75;;;;;;;11.06;95.37;98688.78;5068318;28;20020;-69